Terminal Aerodrome Forecast
Issued by NWS

Home | Current Version | Previous Version | Text Only | Print | Product List | Glossary On
Versions: 1 2 3 4 5 6 7 8 9 10 11 12 13 14 15 16 17 18 19 20 21 22 23 24 25 26 27
000
FTUS41 KOKX 280717 AAA
TAFHPN
TAF AMD
KHPN 280717Z 2807/2906 16004KT 6SM BR BKN100
      TEMPO 2807/2808 3SM BR BKN008
     FM280800 VRB03KT 3SM BR BKN008
     FM281500 21008KT P6SM BKN025
     FM281700 24010KT P6SM BKN040
     FM290100 29005KT P6SM SCT100
     FM290500 35003KT P6SM BKN250
      AMD NOT SKED=

USA.gov is the U.S. government's official web portal to all federal, state and local government web resources and services.